Flight Track Log - Related Links

Times and Time Zones

All times are in EDT time to prevent confusion due to time zone crossing. See the AAL832 flight status page for this flight to view local times or setup timezone preferences in your user account.

Time Position Orientation Groundspeed Altitude Reporting Facility
EDT Latitude Longitude Course Direction KTS MPH feet Rate Location/Type
Sat 12:51:17 PM 33.9133 -118.4625 90° East 215 247 1,900  Level Los Angeles Center
Sat 12:52:00 PM 33.8515 -118.6538 192° South  Level FlightAware Approximate
Sat 12:52:19 PM 33.8403 -118.4819 192° South 251 289 4,300  Level Los Angeles Center
Sat 12:53:00 PM 33.7450 -118.5938 134° Southeast  Level FlightAware Approximate
Sat 12:53:21 PM 33.7706 -118.5022 194° South 285 328 6,600  Level Los Angeles Center
Sat 12:54:00 PM 33.6744 -118.4632 101° East  Level FlightAware Approximate
Sat 12:54:23 PM 33.6867 -118.4792 167° South 289 333 9,800  Level Los Angeles Center
Sat 12:55:00 PM 33.6333 -118.3138 90° East  Level FlightAware Approximate
Sat 12:55:25 PM 33.6556 -118.3822 111° Southeast 313 360 11,200  Level Los Angeles Center
Sat 12:56:00 PM 33.6333 -118.1524 90° East  Level FlightAware Approximate
Sat 12:56:27 PM 33.6431 -118.2661 97° East 358 412 13,100  Level Los Angeles Center
Sat 12:57:29 PM 33.6442 -118.1419 89° East 377 434 15,300 2,323 Climbing Los Angeles Center
Sat 12:58:31 PM 33.6444 -117.9844 90° East 395 455 17,900 2,274 Climbing Los Angeles Center
Sat 12:59:33 PM 33.6439 -117.8467 90° East 411 473 20,000 1,984 Climbing Los Angeles Center
Sat 01:00:35 PM 33.6436 -117.7039 90° East 426 490 22,000 1,790 Climbing Los Angeles Center
Sat 01:01:37 PM 33.6428 -117.5564 90° East 442 509 23,700 1,597 Climbing Los Angeles Center
Sat 01:02:39 PM 33.6428 -117.4039 90° East 454 522 25,300 1,645 Climbing Los Angeles Center
Sat 01:03:41 PM 33.6411 -117.2147 91° East 473 544 27,100 1,548 Climbing Los Angeles Center
Sat 01:04:43 PM 33.6394 -117.0539 91° East 483 556 28,500 1,306 Climbing Los Angeles Center
Sat 01:05:45 PM 33.6594 -116.8928 81° East 498 573 29,800 1,392 Climbing Los Angeles Center
Sat 01:06:48 PM 33.6925 -116.7367 76° East 494 568 31,400 1,440 Climbing Los Angeles Center
Sat 01:07:50 PM 33.7264 -116.5775 76° East 490 564 32,800 1,306 Climbing Los Angeles Center
Sat 01:08:52 PM 33.7583 -116.4186 76° East 489 563 34,100 1,258 Climbing Los Angeles Center
Sat 01:09:54 PM 33.7969 -116.2253 76° East 492 566 35,400 1,065 Climbing Los Angeles Center
Sat 01:10:56 PM 33.8300 -116.0664 76° East 490 564 36,300 774 Climbing Los Angeles Center
Sat 01:11:58 PM 33.8622 -115.9069 76° East 490 564 37,000 290 Climbing Los Angeles Center
Sat 01:13:00 PM 33.8933 -115.7450 77° East 494 568 36,900 -48 Descending Los Angeles Center
Sat 01:14:02 PM 33.9261 -115.5836 76° East 496 571 36,900 44 Level Los Angeles Center
Sat 01:15:17 PM 33.9650 -115.3911 76° East 495 570 37,000 44 Climbing Los Angeles Center
Sat 01:16:19 PM 34.0017 -115.1975 77° East 493 567 37,000  Level Los Angeles Center
Sat 01:17:21 PM 34.0328 -115.0364 77° East 495 570 37,000  Level Los Angeles Center
Sat 01:18:23 PM 34.0644 -114.8744 77° East 498 573 37,000  Level Los Angeles Center
Sat 01:19:25 PM 34.0953 -114.7144 77° East 493 567 37,000  Level Los Angeles Center
Sat 01:20:28 PM 34.1364 -114.5575 72° East 493 567 37,000 -48 Level Los Angeles Center
Sat 01:21:29 PM 34.1800 -114.4014 71° East 491 565 36,900 -49 Descending Los Angeles Center
Sat 01:22:31 PM 34.2333 -114.2178 71° East 485 558 36,900 48 Level Los Angeles Center
Sat 01:23:33 PM 34.2761 -114.0631 71° East 485 558 37,000 48 Climbing Los Angeles Center
Sat 01:24:36 PM 34.3192 -113.9075 71° East 488 562 37,000 -48 Level Los Angeles Center
Sat 01:25:38 PM 34.3614 -113.7506 72° East 491 565 36,900  Descending Los Angeles Center
Sat 01:26:43 PM 34.4133 -113.5608 72° East 492 566 37,000 47 Climbing Albuquerque Center
Sat 01:27:45 PM 34.4569 -113.3997 72° East 487 560 37,000  Level Albuquerque Center
Sat 01:28:47 PM 34.4983 -113.2478 72° East 482 555 37,000  Level Albuquerque Center
Sat 01:29:49 PM 34.5383 -113.0961 72° East 479 551 37,000  Level Albuquerque Center
Sat 01:30:51 PM 34.5800 -112.9431 72° East 482 555 37,000  Level Albuquerque Center
Sat 01:31:53 PM 34.6211 -112.7894 72° East 482 555 37,000  Level Albuquerque Center
Sat 01:32:54 PM 34.6697 -112.6031 72° East 486 559 37,000  Level Albuquerque Center
Sat 01:33:56 PM 34.7103 -112.4497 72° East 485 558 37,000  Level Albuquerque Center
Sat 01:34:58 PM 34.7450 -112.2958 75° East 481 554 37,000  Level Albuquerque Center
Sat 01:36:00 PM 34.7786 -112.1425 75° East 477 549 37,000  Level Albuquerque Center
Sat 01:37:02 PM 34.8136 -111.9903 74° East 473 544 37,000  Level Albuquerque Center
Sat 01:38:04 PM 34.8558 -111.8056 74° East 476 548 37,000  Level Albuquerque Center
Sat 01:39:06 PM 34.8867 -111.6678 75° East 476 548 37,000  Level Albuquerque Center
Sat 01:40:07 PM 34.9217 -111.5117 75° East 476 548 37,000  Level Albuquerque Center
Sat 01:41:09 PM 34.9558 -111.3556 75° East 477 549 37,000  Level Albuquerque Center
Sat 01:42:11 PM 34.9975 -111.1644 75° East 483 556 37,000  Level Albuquerque Center
Sat 01:43:13 PM 35.0325 -111.0039 75° East 488 562 37,000  Level Albuquerque Center
Sat 01:44:15 PM 35.0694 -110.8389 75° East 484 557 37,000  Level Albuquerque Center
Sat 01:45:17 PM 35.1033 -110.6872 75° East 483 556 37,000  Level Albuquerque Center
Sat 01:46:19 PM 35.1414 -110.5092 75° East 485 558 37,000  Level Albuquerque Center
Sat 01:47:21 PM 35.1742 -110.3539 75° East 490 564 37,000  Level Albuquerque Center
Sat 01:48:23 PM 35.2128 -110.1719 75° East 494 568 37,000  Level Albuquerque Center
Sat 01:49:24 PM 35.2450 -110.0158 76° East 494 568 37,000  Level Albuquerque Center
Sat 01:50:26 PM 35.2833 -109.8322 76° East 498 573 37,000  Level Albuquerque Center
Sat 01:51:28 PM 35.3156 -109.6731 76° East 501 577 37,000  Level Albuquerque Center
Sat 01:52:30 PM 35.3539 -109.4867 76° East 506 582 37,000  Level Albuquerque Center
Sat 01:53:32 PM 35.3856 -109.3242 77° East 510 587 37,000  Level Albuquerque Center
Sat 01:54:34 PM 35.4181 -109.1611 76° East 515 593 37,000  Level Albuquerque Center
Sat 01:55:35 PM 35.4561 -108.9731 76° East 513 590 37,000  Level Albuquerque Center
Sat 01:56:37 PM 35.4936 -108.8128 74° East 515 593 37,000  Level Albuquerque Center
Sat 01:57:39 PM 35.5611 -108.6344 65° Northeast 519 597 37,000  Level Albuquerque Center
Sat 01:58:41 PM 35.6175 -108.4811 66° East 518 596 37,000  Level Albuquerque Center
Sat 01:59:43 PM 35.6836 -108.3019 66° East 518 596 37,000  Level Albuquerque Center
Sat 02:00:44 PM 35.7394 -108.1497 66° East 516 594 37,000  Level Albuquerque Center
Sat 02:01:46 PM 35.7858 -107.9622 73° East 515 593 37,000  Level Albuquerque Center
Sat 02:02:48 PM 35.8275 -107.8025 72° East 513 590 37,000  Level Albuquerque Center
Sat 02:03:50 PM 35.8747 -107.6158 73° East 513 590 37,000  Level Albuquerque Center
Sat 02:04:51 PM 35.9164 -107.4564 72° East 511 588 37,000  Level Albuquerque Center
Sat 02:05:53 PM 35.9661 -107.2708 72° East 510 587 37,000  Level Albuquerque Center
Sat 02:06:55 PM 36.0128 -107.1119 70° East 513 590 37,000  Level Albuquerque Center
Sat 02:07:57 PM 36.0586 -106.9522 70° East 515 593 37,000  Level Albuquerque Center
Sat 02:08:58 PM 36.1119 -106.7669 70° East 513 590 37,000  Level Albuquerque Center
Sat 02:10:00 PM 36.1703 -106.6122 65° Northeast 518 596 37,000 -48 Level Albuquerque Center
Sat 02:11:02 PM 36.2297 -106.4442 66° East 516 594 36,900  Descending Albuquerque Center
Sat 02:12:04 PM 36.2867 -106.2819 66° East 513 590 37,000  Climbing Albuquerque Center
Sat 02:13:05 PM 36.3461 -106.1189 66° East 514 592 36,900 -49 Descending Albuquerque Center
Sat 02:14:07 PM 36.4036 -105.9556 66° East 514 592 36,900 48 Level Albuquerque Center
Sat 02:15:09 PM 36.4708 -105.7586 67° East 514 592 37,000  Climbing Albuquerque Center
Sat 02:16:11 PM 36.5281 -105.5947 66° East 515 593 36,900  Descending Albuquerque Center
Sat 02:17:12 PM 36.5814 -105.4433 66° East 514 592 37,000 49 Climbing Albuquerque Center
Sat 02:18:14 PM 36.6386 -105.2772 67° East 516 594 37,000  Level Albuquerque Center
Sat 02:19:15 PM 36.7031 -105.0886 67° East 515 593 37,000  Level Albuquerque Center
Sat 02:20:17 PM 36.7572 -104.9306 67° East 516 594 37,000  Level Albuquerque Center
Sat 02:21:19 PM 36.8186 -104.7508 67° East 517 595 37,000  Level Albuquerque Center
Sat 02:22:20 PM 36.8747 -104.5817 67° East 520 598 37,000  Level Albuquerque Center
Sat 02:22:59 PM 36.9089 -104.4806 67° East 519 597 37,000  Level Denver Center
Sat 02:24:01 PM 36.9603 -104.3236 68° East 514 592 37,000  Level Denver Center
Sat 02:25:03 PM 37.0225 -104.1406 67° East 512 589 37,000  Level Denver Center
Sat 02:26:05 PM 37.0744 -103.9819 68° East 518 596 37,000  Level Denver Center
Sat 02:27:07 PM 37.1356 -103.7964 68° East 519 597 37,000  Level Denver Center
Sat 02:28:09 PM 37.1878 -103.6369 68° East 520 598 37,000  Level Denver Center
Sat 02:29:11 PM 37.2494 -103.4497 67° East 523 602 37,000  Level Denver Center
Sat 02:30:13 PM 37.3017 -103.2878 68° East 525 604 37,000  Level Denver Center
Sat 02:31:14 PM 37.3617 -103.0972 68° East 527 606 37,000  Level Denver Center
Sat 02:32:16 PM 37.4144 -102.9339 68° East 529 609 37,000  Level Denver Center
Sat 02:33:18 PM 37.4756 -102.7439 68° East 527 606 37,000  Level Denver Center
Sat 02:34:20 PM 37.5258 -102.5800 69° East 526 605 37,000  Level Denver Center
Sat 02:35:22 PM 37.5889 -102.3844 68° East 524 603 37,000  Level Denver Center
Sat 02:36:23 PM 37.6317 -102.2472 68° East 526 605 37,000  Level Denver Center
Sat 02:37:26 PM 37.6906 -102.0556 69° East 526 605 37,000  Level Denver Center
Sat 02:38:28 PM 37.7497 -101.8631 69° East 526 605 37,000  Level Denver Center
Sat 02:39:29 PM 37.7992 -101.6997 69° East 520 598 37,000  Level Denver Center
Sat 02:40:31 PM 37.8572 -101.5086 69° East 520 598 37,000  Level Denver Center
Sat 02:41:33 PM 37.9072 -101.3436 69° East 520 598 37,000  Level Denver Center
Sat 02:42:35 PM 37.9653 -101.1511 69° East 521 600 37,000  Level Denver Center
Sat 02:43:37 PM 38.0150 -100.9858 69° East 520 598 37,000  Level Denver Center
Sat 02:44:39 PM 38.0636 -100.8206 69° East 518 596 37,000  Level Denver Center
Sat 02:45:41 PM 38.1200 -100.6261 70° East 522 601 37,000  Level Denver Center
Sat 02:46:43 PM 38.1683 -100.4625 69° East 518 596 37,000  Level Denver Center
Sat 02:47:45 PM 38.2228 -100.2681 70° East 521 600 37,000  Level Denver Center
Sat 02:48:46 PM 38.2706 -100.1025 70° East 521 600 37,000  Level Denver Center
Sat 02:49:48 PM 38.3183 -99.9375 70° East 519 597 37,000  Level Denver Center
Sat 02:51:06 PM 38.3908 -99.6903 69° East 520 598 37,000  Level Kansas City Center
Sat 02:52:08 PM 38.4358 -99.5244 71° East 519 597 37,000  Level Kansas City Center
Sat 02:53:10 PM 38.4850 -99.3547 70° East 519 597 37,000  Level Kansas City Center
Sat 02:54:12 PM 38.5325 -99.1811 71° East 518 596 37,000  Level Kansas City Center
Sat 02:55:13 PM 38.5806 -99.0067 71° East 519 597 37,000  Level Kansas City Center
Sat 02:56:15 PM 38.6283 -98.8314 71° East 520 598 37,000  Level Kansas City Center
Sat 02:57:17 PM 38.6775 -98.6567 70° East 520 598 37,000  Level Kansas City Center
Sat 02:58:19 PM 38.7353 -98.4467 71° East 519 597 37,000  Level Kansas City Center
Sat 02:59:21 PM 38.7814 -98.2714 71° East 517 595 37,000  Level Kansas City Center
Sat 03:00:23 PM 38.8278 -98.0953 71° East 519 597 37,000  Level Kansas City Center
Sat 03:01:24 PM 38.8753 -97.9211 71° East 515 593 37,000  Level Kansas City Center
Sat 03:02:26 PM 38.9267 -97.7317 71° East 516 594 37,000  Level Kansas City Center
Sat 03:03:28 PM 38.9700 -97.5644 72° East 516 594 37,000  Level Kansas City Center
Sat 03:04:30 PM 39.0183 -97.3681 72° East 516 594 37,000  Level Kansas City Center
Sat 03:05:32 PM 39.0622 -97.1997 71° East 520 598 37,000  Level Kansas City Center
Sat 03:06:34 PM 39.1158 -97.0022 71° East 523 602 37,000  Level Kansas City Center
Sat 03:07:35 PM 39.1589 -96.8328 72° East 521 600 37,000  Level Kansas City Center
Sat 03:08:37 PM 39.2011 -96.6619 72° East 522 601 37,000  Level Kansas City Center
Sat 03:09:39 PM 39.2486 -96.4606 73° East 525 604 37,000  Level Kansas City Center
Sat 03:10:41 PM 39.2939 -96.2931 71° East 522 601 37,000  Level Kansas City Center
Sat 03:11:43 PM 39.3403 -96.0894 74° East 524 603 37,000  Level Kansas City Center
Sat 03:12:45 PM 39.3825 -95.9194 72° East 517 595 37,000  Level Kansas City Center
Sat 03:13:47 PM 39.4311 -95.7194 72° East 518 596 37,000  Level Kansas City Center
Sat 03:14:49 PM 39.4728 -95.5472 73° East 520 598 37,000  Level Kansas City Center
Sat 03:15:51 PM 39.5194 -95.3472 73° East 516 594 37,000  Level Kansas City Center
Sat 03:16:53 PM 39.5611 -95.1719 73° East 521 600 37,000  Level Kansas City Center
Sat 03:17:55 PM 39.6014 -94.9989 73° East 520 598 37,000  Level Kansas City Center
Sat 03:18:56 PM 39.6486 -94.7969 73° East 521 600 37,000  Level Kansas City Center
Sat 03:19:58 PM 39.6889 -94.6239 73° East 522 601 37,000  Level Kansas City Center
Sat 03:21:00 PM 39.7275 -94.4494 74° East 524 603 37,000  Level Kansas City Center
Sat 03:22:02 PM 39.7742 -94.2458 73° East 526 605 37,000  Level Kansas City Center
Sat 03:23:04 PM 39.8164 -94.0561 74° East 525 604 37,000  Level Kansas City Center
Sat 03:24:06 PM 39.8564 -93.8736 74° East 526 605 37,000  Level Kansas City Center
Sat 03:25:08 PM 39.8958 -93.6950 74° East 521 600 37,000  Level Kansas City Center
Sat 03:26:09 PM 39.9353 -93.5161 74° East 519 597 37,000  Level Kansas City Center
Sat 03:27:11 PM 39.9739 -93.3353 74° East 521 600 37,000  Level Kansas City Center
Sat 03:28:13 PM 40.0217 -93.1192 74° East 522 601 37,000  Level Kansas City Center
Sat 03:29:15 PM 40.0603 -92.9378 74° East 524 603 37,000  Level Kansas City Center
Sat 03:30:17 PM 40.0969 -92.7594 75° East 528 608 37,000  Level Kansas City Center
Sat 03:31:18 PM 40.1431 -92.5525 74° East 531 611 37,000  Level Kansas City Center
Sat 03:32:20 PM 40.2089 -92.3886 62° Northeast 529 609 37,000  Level Kansas City Center
Sat 03:33:22 PM 40.2747 -92.2039 65° Northeast 531 611 37,000 -290 Level Kansas City Center
Sat 03:34:24 PM 40.3356 -92.0328 65° Northeast 526 605 36,400 -774 Descending Kansas City Center
Sat 03:35:26 PM 40.3958 -91.8625 65° Northeast 523 602 35,400 -1,171 Descending Kansas City Center
Sat 03:36:27 PM 40.4669 -91.6592 65° Northeast 518 596 34,000 -1,171 Descending Kansas City Center
Sat 03:37:29 PM 40.5222 -91.4925 66° East 508 585 33,000 -484 Descending Kansas City Center
Sat 03:38:31 PM 40.5792 -91.3272 66° East 503 579 33,000  Level Kansas City Center
Sat 03:39:33 PM 40.6417 -91.1483 65° Northeast 501 577 33,000 -293 Level Kansas City Center
Sat 03:40:34 PM 40.6983 -90.9819 66° East 498 573 32,400 -878 Descending Kansas City Center
Sat 03:41:36 PM 40.7561 -90.8150 65° Northeast 499 574 31,200 -1,113 Descending Kansas City Center
Sat 03:42:38 PM 40.8114 -90.6483 66° East 497 572 30,100 -1,065 Descending Kansas City Center
Sat 03:43:40 PM 40.8678 -90.4825 66° East 494 568 29,000 -976 Descending Kansas City Center
Sat 03:44:41 PM 40.9236 -90.3128 66° East 498 573 28,100 -940 Descending Kansas City Center
Sat 03:45:54 PM 40.9894 -90.1147 66° East 502 578 26,900 -1,022 Descending Chicago Center
Sat 03:46:56 PM 41.0472 -89.9361 67° East 502 578 25,800 -1,210 Descending Chicago Center
Sat 03:47:58 PM 41.1039 -89.7642 66° East 503 579 24,400 -1,935 Descending Chicago Center
Sat 03:49:00 PM 41.1686 -89.5656 67° East 488 562 21,800 -2,371 Descending Chicago Center
Sat 03:50:02 PM 41.2311 -89.4142 61° Northeast 470 541 19,500 -2,081 Descending Chicago Center
Sat 03:51:04 PM 41.2894 -89.2697 62° Northeast 448 516 17,500 -2,129 Descending Chicago Center
Sat 03:52:06 PM 41.3478 -89.1192 63° Northeast 423 487 15,100 -2,177 Descending Chicago Center
Sat 03:53:08 PM 41.4014 -88.9861 62° Northeast 414 476 13,000 -1,887 Descending Chicago Center
Sat 03:54:10 PM 41.4525 -88.8583 62° Northeast 395 455 11,200 -968 Descending Chicago Center
Sat 03:55:12 PM 41.5022 -88.7336 62° Northeast 383 441 11,000 -97 Descending Chicago Center
Sat 03:56:14 PM 41.5425 -88.6300 63° Northeast 322 371 11,000 -97 Level Chicago Center
Sat 03:57:16 PM 41.5817 -88.5325 62° Northeast 302 348 10,800 -968 Descending Chicago Center
Sat 03:58:18 PM 41.6228 -88.4075 66° East 306 352 9,000 -1,306 Descending Chicago Center
Sat 03:59:20 PM 41.6550 -88.3053 67° East 300 345 8,100 -823 Descending Chicago Center
Sat 04:00:22 PM 41.6900 -88.2094 64° Northeast 289 333 7,300 -387 Descending Chicago Center
Sat 04:01:24 PM 41.7411 -88.1489 41° Northeast 243 280 7,300 -677 Level Chicago Center
Sat 04:02:26 PM 41.7836 -88.1014 40° Northeast 208 239 5,900 -1,500 Descending Chicago Center
Sat 04:03:28 PM 41.8225 -88.0547 42° Northeast 198 228 4,200 -1,452 Descending Chicago Center
Sat 04:04:30 PM 41.8672 -88.0017 41° Northeast 187 215 2,900 -1,149 Descending Chicago Center
Sat 04:05:02 PM 41.8833 -87.9833 40° Northeast 169 194 2,400 -848 Descending Chicago TRACON
Sat 04:06:02 PM 41.9167 -87.9500 37° Northeast 150 173 1,600 -789 Descending Chicago TRACON
Sat 04:06:56 PM 41.9500 -87.9167 37° Northeast 149 171 900 -778 Descending Chicago TRACON

Login

Don't have an account? Register now (free) for customized features, flight alerts, and more!